createdAt,value
2022-12-25T00:00:00.950Z,90.9
2022-12-25T00:01:01.250Z,90.9
2022-12-25T00:02:01.244Z,90.9
2022-12-25T00:03:00.544Z,90.8
2022-12-25T00:04:00.820Z,90.7
2022-12-25T00:05:00.692Z,90.7
2022-12-25T00:06:00.867Z,90.8
2022-12-25T00:07:00.996Z,90.8
2022-12-25T00:08:01.141Z,90.8
2022-12-25T00:09:00.284Z,90.8
2022-12-25T00:10:00.409Z,90.8
2022-12-25T00:11:00.576Z,90.7
2022-12-25T00:12:00.734Z,90.7
2022-12-25T00:13:00.882Z,90.5
2022-12-25T00:14:01.008Z,90.4
2022-12-25T00:15:01.158Z,90.5
2022-12-25T00:16:00.349Z,90.5
2022-12-25T00:17:00.438Z,90.5
2022-12-25T00:18:00.609Z,90.5
2022-12-25T00:19:00.758Z,90.6
2022-12-25T00:20:00.887Z,90.5
2022-12-25T00:21:01.064Z,90.5
2022-12-25T00:22:01.177Z,90.4
2022-12-25T00:23:00.327Z,90.3
2022-12-25T00:24:00.466Z,90.3
2022-12-25T00:25:00.621Z,90.2
2022-12-25T00:26:00.783Z,90
2022-12-25T00:27:00.917Z,90
2022-12-25T00:28:01.062Z,89.8
2022-12-25T00:29:01.224Z,89.7
2022-12-25T00:30:00.373Z,89.6
2022-12-25T00:31:00.564Z,89.5
2022-12-25T00:32:00.736Z,89.5
2022-12-25T00:33:00.816Z,89.4
2022-12-25T00:34:00.963Z,89.3
2022-12-25T00:35:01.105Z,89.3
2022-12-25T00:36:01.277Z,89.2
2022-12-25T00:37:00.412Z,89.1
2022-12-25T00:38:00.560Z,89.2
2022-12-25T00:39:00.704Z,89.1
2022-12-25T00:40:00.855Z,89.1
2022-12-25T00:41:01.030Z,89
2022-12-25T00:42:01.166Z,89.1
2022-12-25T00:43:00.293Z,89
2022-12-25T00:44:00.453Z,89
2022-12-25T00:45:00.604Z,89
2022-12-25T00:46:00.845Z,88.9
2022-12-25T00:47:00.929Z,88.9
2022-12-25T00:48:01.066Z,88.9
2022-12-25T00:49:01.199Z,88.9
2022-12-25T00:50:00.362Z,88.9
2022-12-25T00:51:00.528Z,88.9
2022-12-25T00:52:00.657Z,89
2022-12-25T00:53:00.794Z,88.9
2022-12-25T00:54:00.947Z,89
2022-12-25T00:55:01.087Z,89
2022-12-25T00:56:01.268Z,89.2
2022-12-25T00:57:00.387Z,89.2
2022-12-25T00:58:00.533Z,89.3
2022-12-25T00:59:00.683Z,89.5
2022-12-25T01:00:00.841Z,89.6
2022-12-25T01:01:01.049Z,89.9
2022-12-25T01:02:01.240Z,90.1
2022-12-25T01:03:00.527Z,90.3
2022-12-25T01:04:00.433Z,90.3
2022-12-25T01:05:00.586Z,90.4
2022-12-25T01:06:00.744Z,90.6
2022-12-25T01:07:00.885Z,90.7
2022-12-25T01:08:01.022Z,90.6
2022-12-25T01:09:01.166Z,90.6
2022-12-25T01:10:00.301Z,90.6
2022-12-25T01:11:00.465Z,90.7
2022-12-25T01:12:00.636Z,90.7
2022-12-25T01:13:00.762Z,90.7
2022-12-25T01:14:00.904Z,90.7
2022-12-25T01:15:01.042Z,90.7
2022-12-25T01:16:01.243Z,90.7
2022-12-25T01:17:00.390Z,90.8
2022-12-25T01:18:05.628Z,90.8
2022-12-25T01:19:00.646Z,90.9
2022-12-25T01:20:00.842Z,91
2022-12-25T01:21:00.944Z,91.1
2022-12-25T01:22:01.103Z,91.1
2022-12-25T01:23:01.224Z,91.2
2022-12-25T01:24:00.391Z,91.3
2022-12-25T01:25:00.525Z,91.3
2022-12-25T01:26:00.675Z,91.3
2022-12-25T01:27:00.835Z,91.3
2022-12-25T01:28:00.973Z,91.4
2022-12-25T01:29:01.143Z,91.4
2022-12-25T01:30:01.264Z,91.6
2022-12-25T01:31:00.449Z,91.7
2022-12-25T01:32:00.632Z,91.7
2022-12-25T01:33:00.710Z,91.8
2022-12-25T01:34:00.864Z,91.9
2022-12-25T01:35:01.021Z,92.1
2022-12-25T01:36:01.158Z,92.1
2022-12-25T01:37:00.288Z,92
2022-12-25T01:38:00.460Z,92
2022-12-25T01:39:00.580Z,91.9
2022-12-25T01:40:00.738Z,91.9
2022-12-25T01:41:00.867Z,91.9
2022-12-25T01:42:01.030Z,91.8
2022-12-25T01:43:01.165Z,91.8
2022-12-25T01:44:00.358Z,91.8
2022-12-25T01:45:00.488Z,91.8
2022-12-25T01:46:00.674Z,91.9
2022-12-25T01:47:00.766Z,92
2022-12-25T01:48:00.893Z,92.1
2022-12-25T01:49:01.072Z,92
2022-12-25T01:50:01.215Z,91.9
2022-12-25T01:51:00.346Z,91.9
2022-12-25T01:52:00.505Z,91.9
2022-12-25T01:53:00.659Z,91.8
2022-12-25T01:54:00.794Z,91.7
2022-12-25T01:55:00.977Z,91.7
2022-12-25T01:56:01.102Z,91.7
2022-12-25T01:57:01.258Z,91.6
2022-12-25T01:58:00.405Z,91.6
2022-12-25T01:59:00.546Z,91.6
2022-12-25T02:00:00.724Z,91.6
2022-12-25T02:01:00.885Z,91.6
2022-12-25T02:02:01.146Z,91.6
2022-12-25T02:03:01.242Z,91.6
2022-12-25T02:04:00.312Z,91.6
2022-12-25T02:05:00.481Z,91.5
2022-12-25T02:06:00.601Z,91.6
2022-12-25T02:07:00.751Z,91.6
2022-12-25T02:08:00.904Z,91.6
2022-12-25T02:09:01.058Z,91.6
2022-12-25T02:10:01.253Z,91.6
2022-12-25T02:11:00.392Z,91.6
2022-12-25T02:12:00.591Z,91.6
2022-12-25T02:13:00.654Z,91.7
2022-12-25T02:14:00.834Z,91.7
2022-12-25T02:15:05.453Z,91.8
2022-12-25T02:16:01.231Z,91.9
2022-12-25T02:17:01.297Z,92.1
2022-12-25T02:18:00.394Z,92.2
2022-12-25T02:19:00.543Z,92.3
2022-12-25T02:20:00.761Z,92.4
2022-12-25T02:21:00.854Z,92.5
2022-12-25T02:22:00.998Z,92.5
2022-12-25T02:23:01.152Z,92.6
2022-12-25T02:24:00.321Z,92.7
2022-12-25T02:25:00.459Z,92.7
2022-12-25T02:26:00.606Z,92.8
2022-12-25T02:27:00.749Z,92.8
2022-12-25T02:28:00.898Z,92.8
2022-12-25T02:29:01.071Z,92.8
2022-12-25T02:30:01.210Z,92.8
2022-12-25T02:31:00.356Z,92.8
2022-12-25T02:32:00.621Z,92.9
2022-12-25T02:33:00.667Z,92.9
2022-12-25T02:34:00.791Z,92.9
2022-12-25T02:35:00.973Z,92.8
2022-12-25T02:36:01.091Z,92.6
2022-12-25T02:37:01.244Z,92.6
2022-12-25T02:38:00.372Z,92.6
2022-12-25T02:39:00.524Z,92.5
2022-12-25T02:40:00.815Z,92.4
2022-12-25T02:41:00.830Z,92.4
2022-12-25T02:42:00.999Z,92.4
2022-12-25T02:43:01.125Z,92.4
2022-12-25T02:44:01.268Z,92.5
2022-12-25T02:45:00.408Z,92.6
2022-12-25T02:46:00.638Z,92.6
2022-12-25T02:47:00.719Z,92.7
2022-12-25T02:48:00.898Z,92.7
2022-12-25T02:49:01.003Z,92.8
2022-12-25T02:50:01.148Z,92.8
2022-12-25T02:51:00.323Z,92.8
2022-12-25T02:52:00.481Z,93
2022-12-25T02:53:00.639Z,93.1
2022-12-25T02:54:00.747Z,93.2
2022-12-25T02:55:00.891Z,93.2
2022-12-25T02:56:01.045Z,93.2
2022-12-25T02:57:01.178Z,93.2
2022-12-25T02:58:00.346Z,93.2
2022-12-25T02:59:00.491Z,93.2
2022-12-25T03:00:00.616Z,93.2
2022-12-25T03:01:00.867Z,93.1
2022-12-25T03:02:01.042Z,93
2022-12-25T03:03:01.135Z,93
2022-12-25T03:04:01.216Z,93
2022-12-25T03:05:00.373Z,93
2022-12-25T03:06:00.512Z,92.9
2022-12-25T03:07:00.655Z,92.9
2022-12-25T03:08:00.824Z,92.8
2022-12-25T03:09:00.956Z,92.8
2022-12-25T03:10:01.115Z,92.9
2022-12-25T03:11:01.251Z,92.9
2022-12-25T03:12:00.399Z,93
2022-12-25T03:13:00.574Z,93.1
2022-12-25T03:14:00.708Z,93.1
2022-12-25T03:15:00.836Z,93.2
2022-12-25T03:16:01.013Z,93.3
2022-12-25T03:17:01.212Z,93.3
2022-12-25T03:18:00.350Z,93.4
2022-12-25T03:19:00.465Z,93.5
2022-12-25T03:20:00.605Z,93.5
2022-12-25T03:21:00.774Z,93.6
2022-12-25T03:22:00.906Z,93.6
2022-12-25T03:23:01.081Z,93.6
2022-12-25T03:24:01.198Z,93.5
2022-12-25T03:25:00.397Z,93.4
2022-12-25T03:26:00.520Z,93.3
2022-12-25T03:27:00.656Z,93.1
2022-12-25T03:28:00.806Z,93
2022-12-25T03:29:00.988Z,93
2022-12-25T03:30:01.103Z,93
2022-12-25T03:31:01.309Z,92.9
2022-12-25T03:32:00.385Z,92.9
2022-12-25T03:33:03.601Z,92.9
2022-12-25T03:34:00.695Z,93
2022-12-25T03:35:00.824Z,93
2022-12-25T03:36:00.964Z,93
2022-12-25T03:37:01.121Z,93.1
2022-12-25T03:38:00.284Z,93.1
2022-12-25T03:39:00.431Z,93.2
2022-12-25T03:40:00.590Z,93.3
2022-12-25T03:41:00.710Z,93.2
2022-12-25T03:42:00.857Z,93.2
2022-12-25T03:43:01.002Z,93.2
2022-12-25T03:44:01.158Z,93.1
2022-12-25T03:45:00.320Z,93.1
2022-12-25T03:46:00.551Z,93.1
2022-12-25T03:47:00.593Z,93.1
2022-12-25T03:48:00.742Z,93.1
2022-12-25T03:49:00.906Z,93.1
2022-12-25T03:50:01.094Z,93.1
2022-12-25T03:51:01.185Z,93.1
2022-12-25T03:52:00.326Z,93
2022-12-25T03:53:00.487Z,92.9
2022-12-25T03:54:00.618Z,92.8
2022-12-25T03:55:00.808Z,92.8
2022-12-25T03:56:00.931Z,92.8
2022-12-25T03:57:01.088Z,92.7
2022-12-25T03:58:01.231Z,92.7
2022-12-25T03:59:00.376Z,92.7
2022-12-25T04:00:00.551Z,92.7
2022-12-25T04:01:00.751Z,92.7
2022-12-25T04:02:00.952Z,92.7
2022-12-25T04:03:01.129Z,92.7
2022-12-25T04:04:01.134Z,92.7
2022-12-25T04:05:00.280Z,92.6
2022-12-25T04:06:00.435Z,92.5
2022-12-25T04:07:00.571Z,92.5
2022-12-25T04:08:00.725Z,92.5
2022-12-25T04:09:00.880Z,92.5
2022-12-25T04:10:01.017Z,92.5
2022-12-25T04:11:01.149Z,92.5
2022-12-25T04:12:02.697Z,92.5
2022-12-25T04:13:00.450Z,92.6
2022-12-25T04:14:00.601Z,92.6
2022-12-25T04:15:00.781Z,92.6
2022-12-25T04:16:00.991Z,92.6
2022-12-25T04:17:01.071Z,92.6
2022-12-25T04:18:01.216Z,92.6
2022-12-25T04:19:00.429Z,92.6
2022-12-25T04:20:00.509Z,92.6
2022-12-25T04:21:00.647Z,92.6
2022-12-25T04:22:00.787Z,92.7
2022-12-25T04:23:00.943Z,92.7
2022-12-25T04:24:01.116Z,92.7
2022-12-25T04:25:01.232Z,92.7
2022-12-25T04:26:00.406Z,92.7
2022-12-25T04:27:00.533Z,92.7
2022-12-25T04:28:00.690Z,92.8
2022-12-25T04:29:00.840Z,92.8
2022-12-25T04:30:00.966Z,92.8
2022-12-25T04:31:01.193Z,92.8
2022-12-25T04:32:01.255Z,92.8
2022-12-25T04:33:00.435Z,92.8
2022-12-25T04:34:00.556Z,92.8
2022-12-25T04:35:00.704Z,92.7
2022-12-25T04:36:00.848Z,92.7
2022-12-25T04:37:00.995Z,92.7
2022-12-25T04:38:01.176Z,92.8
2022-12-25T04:39:00.315Z,92.8
2022-12-25T04:40:00.432Z,92.8
2022-12-25T04:41:00.628Z,92.8
2022-12-25T04:42:00.751Z,92.8
2022-12-25T04:43:00.908Z,92.8
2022-12-25T04:44:01.038Z,92.8
2022-12-25T04:45:01.190Z,92.8
2022-12-25T04:46:00.373Z,92.8
2022-12-25T04:47:02.547Z,92.8
2022-12-25T04:48:00.635Z,92.8
2022-12-25T04:49:00.786Z,92.8
2022-12-25T04:50:00.931Z,92.8
2022-12-25T04:51:01.099Z,92.8
2022-12-25T04:52:01.243Z,92.8
2022-12-25T04:53:00.382Z,92.8
2022-12-25T04:54:00.547Z,92.8
2022-12-25T04:55:00.692Z,92.8
2022-12-25T04:56:00.840Z,92.8
2022-12-25T04:57:00.977Z,92.8
2022-12-25T04:58:01.127Z,92.8
2022-12-25T04:59:00.280Z,92.8
2022-12-25T05:00:00.419Z,92.8
2022-12-25T05:01:00.572Z,92.8
2022-12-25T05:02:00.887Z,92.9
2022-12-25T05:03:00.954Z,92.8
2022-12-25T05:04:01.007Z,92.8
2022-12-25T05:05:01.150Z,92.8
2022-12-25T05:06:00.289Z,92.8
2022-12-25T05:07:00.451Z,92.8
2022-12-25T05:08:00.618Z,92.7
2022-12-25T05:09:00.750Z,92.7
2022-12-25T05:10:00.885Z,92.7
2022-12-25T05:11:01.042Z,92.6
2022-12-25T05:12:01.174Z,92.6
2022-12-25T05:13:00.348Z,92.6
2022-12-25T05:14:00.463Z,92.6
2022-12-25T05:15:00.627Z,92.6
2022-12-25T05:16:00.788Z,92.6
2022-12-25T05:17:00.905Z,92.6
2022-12-25T05:18:01.073Z,92.6
2022-12-25T05:19:01.202Z,92.6
2022-12-25T05:20:00.337Z,92.6
2022-12-25T05:21:00.518Z,92.6
2022-12-25T05:22:00.647Z,92.6
2022-12-25T05:23:00.811Z,92.6
2022-12-25T05:24:00.940Z,92.6
2022-12-25T05:25:01.113Z,92.6
2022-12-25T05:26:01.235Z,92.6
2022-12-25T05:27:00.368Z,92.6
2022-12-25T05:28:00.548Z,92.6
2022-12-25T05:29:00.724Z,92.7
2022-12-25T05:30:00.823Z,92.7
2022-12-25T05:31:00.999Z,92.7
2022-12-25T05:32:01.146Z,92.7
2022-12-25T05:33:00.297Z,92.7
2022-12-25T05:34:00.458Z,92.7
2022-12-25T05:35:00.620Z,92.6
2022-12-25T05:36:00.752Z,92.6
2022-12-25T05:37:00.918Z,92.6
2022-12-25T05:38:01.051Z,92.6
2022-12-25T05:39:01.237Z,92.6
2022-12-25T05:40:00.357Z,92.6
2022-12-25T05:41:00.498Z,92.6
2022-12-25T05:42:00.641Z,92.6
2022-12-25T05:43:00.814Z,92.6
2022-12-25T05:44:00.974Z,92.6
2022-12-25T05:45:01.098Z,92.5
2022-12-25T05:46:01.255Z,92.5
2022-12-25T05:47:00.472Z,92.5
2022-12-25T05:48:00.563Z,92.5
2022-12-25T05:49:00.731Z,92.5
2022-12-25T05:50:00.856Z,92.5
2022-12-25T05:51:01.011Z,92.5
2022-12-25T05:52:01.171Z,92.5
2022-12-25T05:53:06.106Z,92.4
2022-12-25T05:54:00.572Z,92.5
2022-12-25T05:55:00.617Z,92.5
2022-12-25T05:56:00.755Z,92.5
2022-12-25T05:57:00.895Z,92.5
2022-12-25T05:58:01.086Z,92.5
2022-12-25T05:59:01.239Z,92.5
2022-12-25T06:00:00.389Z,92.5
2022-12-25T06:01:00.531Z,92.5
2022-12-25T06:02:00.787Z,92.5
2022-12-25T06:03:01.077Z,92.5
2022-12-25T06:04:01.256Z,92.5
2022-12-25T06:05:01.113Z,92.5
2022-12-25T06:06:00.265Z,92.5
2022-12-25T06:07:00.414Z,92.5
2022-12-25T06:08:00.553Z,92.5
2022-12-25T06:09:00.745Z,92.5
2022-12-25T06:10:00.876Z,92.5
2022-12-25T06:11:01.016Z,92.5
2022-12-25T06:12:01.157Z,92.5
2022-12-25T06:13:00.307Z,92.4
2022-12-25T06:14:00.525Z,92.4
2022-12-25T06:15:00.623Z,92.3
2022-12-25T06:16:00.775Z,92.3
2022-12-25T06:17:00.941Z,92.3
2022-12-25T06:18:01.052Z,92.4
2022-12-25T06:19:01.231Z,92.4
2022-12-25T06:20:00.371Z,92.4
2022-12-25T06:21:00.511Z,92.4
2022-12-25T06:22:00.654Z,92.4
2022-12-25T06:23:00.817Z,92.4
2022-12-25T06:24:01.087Z,92.4
2022-12-25T06:25:01.118Z,92.4
2022-12-25T06:26:01.238Z,92.4
2022-12-25T06:27:00.395Z,92.3
2022-12-25T06:28:00.570Z,92.3
2022-12-25T06:29:00.712Z,92.3
2022-12-25T06:30:00.831Z,92.3
2022-12-25T06:31:00.984Z,92.2
2022-12-25T06:32:01.249Z,92.2
2022-12-25T06:33:00.292Z,92.2
2022-12-25T06:34:00.437Z,92.2
2022-12-25T06:35:00.574Z,92.3
2022-12-25T06:36:00.725Z,92.3
2022-12-25T06:37:00.882Z,92.3
2022-12-25T06:38:01.016Z,92.3
2022-12-25T06:39:01.171Z,92.3
2022-12-25T06:40:00.313Z,92.3
2022-12-25T06:41:00.453Z,92.3
2022-12-25T06:42:00.612Z,92.3
2022-12-25T06:43:00.778Z,92.3
2022-12-25T06:44:00.905Z,92.3
2022-12-25T06:45:01.057Z,92.4
2022-12-25T06:46:01.265Z,92.6
2022-12-25T06:47:00.366Z,92.5
2022-12-25T06:48:00.509Z,92.5
2022-12-25T06:49:00.694Z,92.6
2022-12-25T06:50:00.816Z,92.6
2022-12-25T06:51:00.950Z,92.5
2022-12-25T06:52:01.099Z,92.7
2022-12-25T06:53:01.251Z,92.8
2022-12-25T06:54:00.397Z,92.8
2022-12-25T06:55:00.572Z,92.8
2022-12-25T06:56:00.727Z,92.8
2022-12-25T06:57:00.842Z,92.8
2022-12-25T06:58:00.992Z,92.9
2022-12-25T06:59:01.187Z,92.9
2022-12-25T07:00:00.289Z,92.8
2022-12-25T07:01:00.493Z,92.8
2022-12-25T07:02:00.813Z,92.8
2022-12-25T07:03:00.865Z,92.8
2022-12-25T07:04:00.918Z,92.8
2022-12-25T07:05:01.051Z,92.8
2022-12-25T07:06:01.218Z,92.8
2022-12-25T07:07:06.207Z,92.8
2022-12-25T07:08:00.494Z,92.8
2022-12-25T07:09:00.639Z,92.8
2022-12-25T07:10:00.786Z,92.8
2022-12-25T07:11:00.969Z,92.8
2022-12-25T07:12:01.095Z,92.8
2022-12-25T07:13:01.234Z,92.8
2022-12-25T07:14:00.388Z,92.8
2022-12-25T07:15:00.552Z,92.8
2022-12-25T07:16:00.738Z,92.9
2022-12-25T07:17:00.917Z,93
2022-12-25T07:18:00.995Z,93
2022-12-25T07:19:01.177Z,93
2022-12-25T07:20:00.308Z,93
2022-12-25T07:21:00.463Z,93
2022-12-25T07:22:00.643Z,93
2022-12-25T07:23:00.770Z,93
2022-12-25T07:24:00.891Z,93
2022-12-25T07:25:01.047Z,93
2022-12-25T07:26:01.198Z,92.9
2022-12-25T07:27:00.373Z,93
2022-12-25T07:28:00.527Z,92.9
2022-12-25T07:29:00.652Z,93
2022-12-25T07:30:00.804Z,93
2022-12-25T07:31:00.939Z,93
2022-12-25T07:32:01.129Z,93
2022-12-25T07:33:01.274Z,93
2022-12-25T07:34:00.381Z,93
2022-12-25T07:35:00.524Z,93.1
2022-12-25T07:36:00.677Z,93.1
2022-12-25T07:37:00.811Z,93.1
2022-12-25T07:38:01.003Z,93.1
2022-12-25T07:39:01.110Z,93.1
2022-12-25T07:40:01.255Z,93.1
2022-12-25T07:41:00.466Z,93.1
2022-12-25T07:42:00.553Z,93.1
2022-12-25T07:43:00.732Z,93.1
2022-12-25T07:44:00.849Z,93.1
2022-12-25T07:45:01.004Z,93.1
2022-12-25T07:46:01.219Z,93.1
2022-12-25T07:47:00.325Z,93.1
2022-12-25T07:48:05.290Z,93.2
2022-12-25T07:49:00.631Z,93.2
2022-12-25T07:50:00.743Z,93.2
2022-12-25T07:51:00.886Z,93.2
2022-12-25T07:52:01.041Z,93.2
2022-12-25T07:53:01.201Z,93.1
2022-12-25T07:54:00.361Z,93.1
2022-12-25T07:55:00.499Z,93.1
2022-12-25T07:56:00.664Z,93.1
2022-12-25T07:57:00.798Z,93.1
2022-12-25T07:58:00.966Z,93.1
2022-12-25T07:59:01.152Z,93.1
2022-12-25T08:00:01.280Z,93.1
2022-12-25T08:01:00.455Z,93.1
2022-12-25T08:02:00.782Z,93.1
2022-12-25T08:03:00.891Z,93.1
2022-12-25T08:04:01.039Z,93.2
2022-12-25T08:05:00.965Z,93.2
2022-12-25T08:06:01.112Z,93.2
2022-12-25T08:08:00.370Z,93.2
2022-12-25T08:09:00.527Z,93.2
2022-12-25T08:10:00.689Z,93.2
2022-12-25T08:11:00.832Z,93.2
2022-12-25T08:12:00.971Z,93.2
2022-12-25T08:13:01.138Z,93.2
2022-12-25T08:14:00.266Z,93.2
2022-12-25T08:15:00.409Z,93.2
2022-12-25T08:16:00.575Z,93.2
2022-12-25T08:17:00.764Z,93.2
2022-12-25T08:18:00.883Z,93.2
2022-12-25T08:19:01.014Z,93.3
2022-12-25T08:20:01.159Z,93.3
2022-12-25T08:21:00.294Z,93.3
2022-12-25T08:22:00.465Z,93.3
2022-12-25T08:23:00.612Z,93.3
2022-12-25T08:24:00.740Z,93.3
2022-12-25T08:25:00.914Z,93.3
2022-12-25T08:26:05.032Z,93.3
2022-12-25T08:27:01.186Z,93.3
2022-12-25T08:28:00.361Z,93.3
2022-12-25T08:29:00.467Z,93.3
2022-12-25T08:30:00.610Z,93.3
2022-12-25T08:31:00.847Z,93.2
2022-12-25T08:32:00.936Z,93.3
2022-12-25T08:33:01.127Z,93.3
2022-12-25T08:34:01.272Z,93.3
2022-12-25T08:35:00.406Z,93.3
2022-12-25T08:36:00.566Z,93.2
2022-12-25T08:37:00.701Z,93.2
2022-12-25T08:38:00.841Z,93.2
2022-12-25T08:39:03.300Z,93.2
2022-12-25T08:40:01.142Z,93.2
2022-12-25T08:41:00.290Z,93.1
2022-12-25T08:42:00.427Z,93.1
2022-12-25T08:43:00.627Z,93.1
2022-12-25T08:44:00.764Z,93.1
2022-12-25T08:45:00.890Z,93.1
2022-12-25T08:46:01.156Z,93.1
2022-12-25T08:47:01.171Z,93.1
2022-12-25T08:48:00.329Z,93.2
2022-12-25T08:49:00.482Z,93.2
2022-12-25T08:50:00.628Z,93.2
2022-12-25T08:51:00.774Z,93.2
2022-12-25T08:52:00.910Z,93.2
2022-12-25T08:53:01.096Z,93.2
2022-12-25T08:54:01.280Z,93.2
2022-12-25T08:55:00.361Z,93.1
2022-12-25T08:56:00.510Z,93.1
2022-12-25T08:57:02.966Z,93.1
2022-12-25T08:58:00.816Z,93
2022-12-25T08:59:00.947Z,93
2022-12-25T09:00:01.106Z,93
2022-12-25T09:01:01.322Z,93.1
2022-12-25T09:02:00.453Z,93.1
2022-12-25T09:03:00.836Z,93.1
2022-12-25T09:04:00.688Z,93
2022-12-25T09:05:00.833Z,93
2022-12-25T09:06:01.000Z,93
2022-12-25T09:07:01.126Z,93
2022-12-25T09:08:00.296Z,93
2022-12-25T09:09:00.439Z,92.9
2022-12-25T09:10:00.589Z,92.9
2022-12-25T09:11:00.768Z,92.9
2022-12-25T09:12:00.869Z,92.9
2022-12-25T09:13:01.038Z,92.8
2022-12-25T09:14:01.182Z,92.7
2022-12-25T09:15:00.338Z,92.8
2022-12-25T09:16:00.534Z,92.7
2022-12-25T09:17:00.680Z,92.7
2022-12-25T09:18:00.775Z,92.7
2022-12-25T09:19:00.923Z,92.7
2022-12-25T09:20:01.086Z,92.7
2022-12-25T09:21:01.229Z,92.7
2022-12-25T09:22:00.374Z,92.6
2022-12-25T09:23:00.525Z,92.6
2022-12-25T09:24:00.663Z,92.6
2022-12-25T09:25:00.818Z,92.6
2022-12-25T09:26:00.960Z,92.6
2022-12-25T09:27:01.175Z,92.6
2022-12-25T09:28:01.257Z,92.5
2022-12-25T09:29:00.415Z,92.6
2022-12-25T09:30:00.577Z,92.6
2022-12-25T09:31:00.757Z,92.4
2022-12-25T09:32:00.879Z,92.4
2022-12-25T09:33:00.997Z,92.4
2022-12-25T09:34:01.147Z,92.4
2022-12-25T09:35:00.314Z,92.3
2022-12-25T09:36:00.465Z,92.3
2022-12-25T09:37:00.609Z,92.2
2022-12-25T09:38:00.737Z,92.1
2022-12-25T09:39:00.937Z,92
2022-12-25T09:40:01.038Z,91.9
2022-12-25T09:41:01.209Z,91.8
2022-12-25T09:42:00.400Z,91.8
2022-12-25T09:43:00.495Z,91.8
2022-12-25T09:44:00.703Z,91.7
2022-12-25T09:45:00.774Z,91.7
2022-12-25T09:46:01.014Z,91.6
2022-12-25T09:47:01.091Z,91.5
2022-12-25T09:48:01.226Z,91.4
2022-12-25T09:49:00.409Z,91.2
2022-12-25T09:50:00.546Z,91.1
2022-12-25T09:51:00.672Z,91.1
2022-12-25T09:52:00.809Z,90.9
2022-12-25T09:53:00.993Z,90.7
2022-12-25T09:54:01.114Z,90.4
2022-12-25T09:55:01.407Z,90.2
2022-12-25T09:56:00.441Z,90
2022-12-25T09:57:00.612Z,89.9
2022-12-25T09:58:00.751Z,89.6
2022-12-25T09:59:00.888Z,89.3
2022-12-25T10:00:01.083Z,89.2
2022-12-25T10:01:01.186Z,89.2
2022-12-25T10:02:00.504Z,89.2
2022-12-25T10:03:00.853Z,89.2
2022-12-25T10:04:00.624Z,89
2022-12-25T10:05:00.797Z,88.6
2022-12-25T10:06:00.923Z,88.1
2022-12-25T10:07:01.076Z,87.8
2022-12-25T10:08:01.215Z,87.6
2022-12-25T10:09:00.338Z,87.1
2022-12-25T10:10:00.521Z,86.5
2022-12-25T10:11:00.652Z,86.5
2022-12-25T10:12:00.822Z,86.4
2022-12-25T10:13:00.943Z,85.9
2022-12-25T10:14:01.095Z,85.8
2022-12-25T10:15:01.228Z,85.5
2022-12-25T10:16:00.471Z,85.2
2022-12-25T10:17:00.555Z,85.1
2022-12-25T10:18:00.666Z,85.3
2022-12-25T10:19:00.815Z,85.1
2022-12-25T10:20:00.975Z,85.2
2022-12-25T10:21:01.125Z,85.1
2022-12-25T10:22:00.289Z,84.6
2022-12-25T10:23:00.480Z,84.4
2022-12-25T10:24:00.569Z,84.5
2022-12-25T10:25:00.724Z,84.5
2022-12-25T10:26:00.871Z,84.4
2022-12-25T10:27:01.025Z,84.7
2022-12-25T10:28:01.235Z,84.4
2022-12-25T10:29:00.321Z,83.9
2022-12-25T10:30:00.468Z,83.8
2022-12-25T10:31:00.678Z,83.6
2022-12-25T10:32:00.756Z,83.7
2022-12-25T10:33:00.934Z,84
2022-12-25T10:34:01.076Z,83.9
2022-12-25T10:35:01.212Z,84.1
2022-12-25T10:36:00.350Z,83.9
2022-12-25T10:37:00.501Z,84.1
2022-12-25T10:38:00.687Z,84.2
2022-12-25T10:39:00.809Z,83.9
2022-12-25T10:40:00.937Z,84.1
2022-12-25T10:41:01.083Z,83.9
2022-12-25T10:42:01.229Z,84.3
2022-12-25T10:43:00.395Z,84.3
2022-12-25T10:44:00.530Z,84.5
2022-12-25T10:45:00.681Z,84.9
2022-12-25T10:46:00.879Z,85.1
2022-12-25T10:47:00.975Z,85.1
2022-12-25T10:48:06.779Z,85.2
2022-12-25T10:49:00.274Z,85.2
2022-12-25T10:50:00.430Z,85.3
2022-12-25T10:51:00.567Z,85.4
2022-12-25T10:52:00.736Z,85.4
2022-12-25T10:53:00.895Z,85.5
2022-12-25T10:54:01.024Z,85.6
2022-12-25T10:55:01.181Z,85.1
2022-12-25T10:56:00.328Z,84.9
2022-12-25T10:57:00.464Z,84.6
2022-12-25T10:58:00.621Z,84
2022-12-25T10:59:00.792Z,83.8
2022-12-25T11:00:00.906Z,84
2022-12-25T11:01:01.055Z,84
2022-12-25T11:02:01.299Z,84.5
2022-12-25T11:03:00.788Z,84.5
2022-12-25T11:04:00.596Z,84.8
2022-12-25T11:05:00.671Z,84.8
2022-12-25T11:06:00.812Z,84.8
2022-12-25T11:07:00.961Z,84.4
2022-12-25T11:08:01.112Z,84.3
2022-12-25T11:09:01.317Z,84.7
2022-12-25T11:10:04.617Z,84.5
2022-12-25T11:11:00.560Z,84.4
2022-12-25T11:12:00.718Z,83.7
2022-12-25T11:13:00.904Z,83.5
2022-12-25T11:14:01.023Z,83.2
2022-12-25T11:15:01.172Z,83.5
2022-12-25T11:16:00.349Z,83.3
2022-12-25T11:17:00.468Z,83.6
2022-12-25T11:18:00.653Z,83.9
2022-12-25T11:19:00.754Z,84.2
2022-12-25T11:20:00.926Z,83.7
2022-12-25T11:21:01.080Z,84
2022-12-25T11:22:01.230Z,83.8
2022-12-25T11:23:00.349Z,83.5
2022-12-25T11:24:00.501Z,83
2022-12-25T11:25:00.640Z,82.9
2022-12-25T11:26:00.831Z,82.5
2022-12-25T11:27:00.947Z,82.8
2022-12-25T11:28:01.085Z,83.1
2022-12-25T11:29:01.235Z,83
2022-12-25T11:30:00.382Z,83
2022-12-25T11:31:00.591Z,83.1
2022-12-25T11:32:00.685Z,83.1
2022-12-25T11:33:00.815Z,83.4
2022-12-25T11:34:00.969Z,83.6
2022-12-25T11:35:01.125Z,83.9
2022-12-25T11:36:00.262Z,84.1
2022-12-25T11:37:00.436Z,84.3
2022-12-25T11:38:00.553Z,84.4
2022-12-25T11:39:00.712Z,84.7
2022-12-25T11:40:00.863Z,84.8
2022-12-25T11:41:01.013Z,84.9
2022-12-25T11:42:01.168Z,84.8
2022-12-25T11:43:07.642Z,84.9
2022-12-25T11:44:00.446Z,84.4
2022-12-25T11:45:00.626Z,84.6
2022-12-25T11:46:00.752Z,84.5
2022-12-25T11:47:01.021Z,84.7
2022-12-25T11:48:01.053Z,84.6
2022-12-25T11:49:01.196Z,84.1
2022-12-25T11:50:00.886Z,84.1
2022-12-25T11:51:00.484Z,83.8
2022-12-25T11:52:00.631Z,83.5
2022-12-25T11:53:00.783Z,83.5
2022-12-25T11:54:00.921Z,83.8
2022-12-25T11:55:01.113Z,83.7
2022-12-25T11:56:01.235Z,83.4
2022-12-25T11:57:00.373Z,83.2
2022-12-25T11:58:00.526Z,83.6
2022-12-25T11:59:00.683Z,83.6
2022-12-25T12:00:00.840Z,83.1
2022-12-25T12:01:00.966Z,83.3
2022-12-25T12:02:01.244Z,81.5
2022-12-25T12:03:00.437Z,80.5
2022-12-25T12:04:00.460Z,80.3
2022-12-25T12:05:00.574Z,80.2
2022-12-25T12:06:00.702Z,80.9
2022-12-25T12:07:00.849Z,79.9
2022-12-25T12:08:01.028Z,80.4
2022-12-25T12:09:01.168Z,80
2022-12-25T12:10:02.810Z,79.9
2022-12-25T12:11:00.435Z,80.3
2022-12-25T12:12:00.599Z,80.5
2022-12-25T12:13:00.767Z,79.7
2022-12-25T12:14:00.885Z,80.4
2022-12-25T12:15:01.064Z,79.8
2022-12-25T12:16:01.262Z,79.4
2022-12-25T12:17:00.424Z,80.4
2022-12-25T12:18:00.496Z,80.2
2022-12-25T12:19:00.640Z,80.3
2022-12-25T12:20:00.825Z,79.7
2022-12-25T12:21:00.971Z,79.7
2022-12-25T12:22:01.116Z,79.1
2022-12-25T12:23:00.272Z,79.2
2022-12-25T12:24:00.421Z,79.9
2022-12-25T12:25:00.586Z,80.2
2022-12-25T12:26:00.744Z,79.8
2022-12-25T12:27:00.875Z,80.2
2022-12-25T12:28:05.345Z,80.8
2022-12-25T12:29:01.186Z,80.9
2022-12-25T12:30:00.352Z,80.5
2022-12-25T12:31:00.460Z,81.1
2022-12-25T12:32:00.640Z,80.9
2022-12-25T12:33:00.763Z,80.8
2022-12-25T12:34:00.910Z,80.5
2022-12-25T12:35:01.075Z,80.1
2022-12-25T12:36:01.218Z,80.7
2022-12-25T12:37:00.340Z,80.3
2022-12-25T12:38:00.493Z,80
2022-12-25T12:39:00.644Z,80.3
2022-12-25T12:40:00.782Z,80.3
2022-12-25T12:41:00.954Z,80.1
2022-12-25T12:42:01.095Z,80.1
2022-12-25T12:43:01.214Z,80
2022-12-25T12:44:00.367Z,79.8
2022-12-25T12:45:00.559Z,80.1
2022-12-25T12:46:00.732Z,80.3
2022-12-25T12:47:00.827Z,80.4
2022-12-25T12:48:00.970Z,80.6
2022-12-25T12:49:01.122Z,80.8
2022-12-25T12:50:00.331Z,80.4
2022-12-25T12:51:00.457Z,80.5
2022-12-25T12:52:00.591Z,80.5
2022-12-25T12:53:00.739Z,81
2022-12-25T12:54:00.874Z,81.2
2022-12-25T12:55:01.030Z,80.8
2022-12-25T12:56:01.190Z,80.7
2022-12-25T12:57:00.332Z,81
2022-12-25T12:58:00.469Z,81
2022-12-25T12:59:00.619Z,81.3
2022-12-25T13:00:08.142Z,81.2
2022-12-25T13:01:01.100Z,81.3
2022-12-25T13:02:01.322Z,81.5
2022-12-25T13:03:01.461Z,81.2
2022-12-25T13:04:00.394Z,81.1
2022-12-25T13:05:00.527Z,81.1
2022-12-25T13:06:00.687Z,81.4
2022-12-25T13:07:00.802Z,81.2
2022-12-25T13:08:01.013Z,81.4
2022-12-25T13:09:01.115Z,81.4
2022-12-25T13:10:01.290Z,81.7
2022-12-25T13:11:00.419Z,81.8
2022-12-25T13:12:00.576Z,81.5
2022-12-25T13:13:00.716Z,81.5
2022-12-25T13:14:00.856Z,81.2
2022-12-25T13:15:00.996Z,81.4
2022-12-25T13:16:01.238Z,81.5
2022-12-25T13:17:00.344Z,81.5
2022-12-25T13:18:00.447Z,81.3
2022-12-25T13:19:00.590Z,81.5
2022-12-25T13:20:00.740Z,81.3
2022-12-25T13:21:00.888Z,81.4
2022-12-25T13:22:01.073Z,81.4
2022-12-25T13:23:01.198Z,81.5
2022-12-25T13:24:00.368Z,81.8